createdAt,value
2023-05-10T00:01:13.953Z,7.50
2023-05-10T00:03:42.281Z,7.80
2023-05-10T00:06:10.558Z,7.30
2023-05-10T00:08:38.799Z,8.40
2023-05-10T00:11:06.848Z,8.60
2023-05-10T00:13:34.918Z,8.00
2023-05-10T00:16:03.032Z,11.80
2023-05-10T00:18:31.283Z,11.60
2023-05-10T00:20:59.458Z,8.70
2023-05-10T00:23:27.532Z,8.90
2023-05-10T00:25:55.718Z,8.10
2023-05-10T00:28:25.513Z,7.90
2023-05-10T00:30:53.592Z,7.90
2023-05-10T00:33:22.072Z,13.30
2023-05-10T00:35:50.750Z,9.50
2023-05-10T00:38:18.811Z,8.20
2023-05-10T00:40:47.581Z,9.20
2023-05-10T00:43:22.082Z,9.20
2023-05-10T00:45:50.974Z,8.80
2023-05-10T00:48:20.012Z,10.30
2023-05-10T00:50:48.498Z,8.80
2023-05-10T00:53:17.356Z,8.90
2023-05-10T00:55:45.944Z,9.70
2023-05-10T00:58:14.339Z,10.00
2023-05-10T01:00:44.585Z,11.10
2023-05-10T01:03:13.069Z,10.60
2023-05-10T01:05:41.321Z,11.60
2023-05-10T01:08:09.923Z,9.70
2023-05-10T01:10:38.389Z,10.80
2023-05-10T01:13:06.666Z,12.00
2023-05-10T01:15:35.573Z,9.50
2023-05-10T01:18:04.358Z,10.20
2023-05-10T01:20:41.215Z,12.30
2023-05-10T01:23:35.393Z,9.40
2023-05-10T01:26:23.843Z,9.70
2023-05-10T01:28:54.576Z,10.40
2023-05-10T01:31:42.831Z,9.80
2023-05-10T01:34:21.952Z,12.20
2023-05-10T01:37:00.395Z,11.10
2023-05-10T01:39:37.407Z,12.40
2023-05-10T01:42:12.692Z,10.90
2023-05-10T01:44:58.826Z,11.30
2023-05-10T01:48:12.091Z,11.10
2023-05-10T01:50:44.373Z,11.00
2023-05-10T01:53:19.127Z,11.50
2023-05-10T01:55:53.967Z,10.90
2023-05-10T01:58:30.587Z,14.30
2023-05-10T02:01:02.713Z,9.80
2023-05-10T02:03:33.864Z,10.70
2023-05-10T02:06:03.335Z,14.30
2023-05-10T02:08:34.172Z,9.30
2023-05-10T02:11:05.052Z,10.90
2023-05-10T02:13:37.114Z,10.70
2023-05-10T02:16:06.718Z,11.30
2023-05-10T02:18:38.079Z,8.90
2023-05-10T02:21:06.937Z,10.60
2023-05-10T02:23:36.330Z,11.70
2023-05-10T02:28:37.186Z,12.20
2023-05-10T02:31:07.760Z,10.50
2023-05-10T02:33:36.456Z,10.80
2023-05-10T02:36:05.394Z,10.90
2023-05-10T02:38:36.083Z,10.90
2023-05-10T02:41:06.970Z,10.50
2023-05-10T02:43:36.663Z,13.30
2023-05-10T02:46:05.094Z,12.00
2023-05-10T02:48:33.990Z,12.80
2023-05-10T02:51:08.145Z,15.10
2023-05-10T02:53:39.743Z,16.10
2023-05-10T02:56:15.778Z,14.80
2023-05-10T02:58:43.950Z,18.10
2023-05-10T03:01:12.054Z,17.20
2023-05-10T03:03:40.236Z,12.70
2023-05-10T03:08:38.215Z,10.50
2023-05-10T03:11:50.933Z,11.90
2023-05-10T03:14:46.299Z,11.30
2023-05-10T03:17:56.769Z,10.40
2023-05-10T03:20:37.766Z,11.20
2023-05-10T03:23:14.681Z,10.60
2023-05-10T03:25:44.891Z,9.80
2023-05-10T03:28:13.841Z,8.90
2023-05-10T03:30:43.953Z,10.10
2023-05-10T03:33:13.924Z,9.90
2023-05-10T03:35:46.737Z,10.30
2023-05-10T03:38:15.261Z,11.20
2023-05-10T03:40:43.487Z,9.40
2023-05-10T03:43:11.710Z,10.50
2023-05-10T03:45:40.066Z,8.90
2023-05-10T03:48:08.474Z,11.30
2023-05-10T03:50:36.663Z,8.70
2023-05-10T03:53:05.003Z,9.60
2023-05-10T03:55:37.205Z,10.40
2023-05-10T03:58:05.463Z,11.80
2023-05-10T04:00:34.353Z,9.00
2023-05-10T04:03:02.766Z,12.30
2023-05-10T04:05:31.333Z,7.90
2023-05-10T04:07:59.790Z,8.70
2023-05-10T04:10:27.822Z,7.70
2023-05-10T04:12:55.973Z,6.90
2023-05-10T04:15:24.624Z,8.30
2023-05-10T04:17:52.817Z,7.90
2023-05-10T04:20:21.064Z,10.10
2023-05-10T04:22:49.263Z,7.80
2023-05-10T04:25:18.236Z,7.90
2023-05-10T04:27:46.234Z,8.10
2023-05-10T04:30:14.560Z,8.30
2023-05-10T04:32:43.070Z,7.60
2023-05-10T04:35:12.031Z,11.10
2023-05-10T04:37:40.222Z,10.80
2023-05-10T04:40:09.220Z,8.00
2023-05-10T04:42:37.292Z,6.70
2023-05-10T04:45:06.207Z,10.00
2023-05-10T04:50:02.512Z,8.20
2023-05-10T04:52:30.686Z,6.80
2023-05-10T04:54:59.238Z,12.50
2023-05-10T04:57:27.455Z,7.70
2023-05-10T04:59:55.619Z,7.00
2023-05-10T05:02:24.778Z,9.80
2023-05-10T05:04:52.967Z,7.00
2023-05-10T05:07:21.134Z,7.40
2023-05-10T05:09:49.163Z,6.90
2023-05-10T05:12:17.566Z,6.90
2023-05-10T05:14:46.000Z,9.30
2023-05-10T05:17:14.243Z,6.90
2023-05-10T05:22:10.733Z,8.10
2023-05-10T05:24:39.356Z,6.40
2023-05-10T05:27:08.082Z,7.80
2023-05-10T05:29:36.153Z,6.20
2023-05-10T05:32:05.127Z,6.80
2023-05-10T05:34:33.771Z,6.50
2023-05-10T05:39:29.816Z,7.40
2023-05-10T05:41:57.813Z,7.20
2023-05-10T05:44:26.663Z,7.10
2023-05-10T05:46:54.809Z,6.90
2023-05-10T05:49:23.148Z,7.10
2023-05-10T05:51:51.496Z,8.00
2023-05-10T05:54:19.729Z,6.20
2023-05-10T05:56:48.023Z,6.60
2023-05-10T05:59:16.197Z,6.70
2023-05-10T06:01:44.313Z,7.40
2023-05-10T06:04:13.663Z,6.90
2023-05-10T06:06:42.276Z,6.80
2023-05-10T06:09:11.023Z,6.90
2023-05-10T06:11:39.575Z,5.90
2023-05-10T06:14:09.183Z,7.50
2023-05-10T06:16:37.919Z,5.10
2023-05-10T06:19:06.282Z,5.40
2023-05-10T06:21:34.528Z,5.00
2023-05-10T06:24:04.041Z,5.40
2023-05-10T06:26:32.136Z,6.60
2023-05-10T06:29:00.512Z,4.50
2023-05-10T06:31:28.699Z,5.10
2023-05-10T06:33:57.005Z,6.00
2023-05-10T06:36:27.465Z,7.70
2023-05-10T06:38:56.105Z,4.60
2023-05-10T06:41:24.994Z,6.40
2023-05-10T06:46:21.530Z,7.20
2023-05-10T06:48:49.580Z,6.70
2023-05-10T06:51:18.867Z,4.90
2023-05-10T06:53:46.950Z,5.00
2023-05-10T06:56:15.245Z,5.70
2023-05-10T06:58:43.736Z,6.10
2023-05-10T07:01:12.026Z,6.30
2023-05-10T07:03:40.258Z,5.60
2023-05-10T07:06:15.668Z,4.90
2023-05-10T07:08:47.051Z,6.30
2023-05-10T07:11:15.160Z,5.40
2023-05-10T07:13:45.393Z,5.10
2023-05-10T07:16:13.635Z,6.20
2023-05-10T07:18:42.069Z,5.00
2023-05-10T07:21:10.281Z,5.40
2023-05-10T07:23:38.751Z,5.70
2023-05-10T07:26:07.053Z,4.30
2023-05-10T07:28:37.697Z,5.40
2023-05-10T07:31:06.053Z,5.60
2023-05-10T07:33:34.258Z,6.80
2023-05-10T07:36:02.374Z,4.70
2023-05-10T07:38:30.502Z,5.70
2023-05-10T07:40:58.898Z,5.50
2023-05-10T07:43:27.059Z,4.50
2023-05-10T07:45:56.388Z,4.80
2023-05-10T07:48:24.724Z,4.90
2023-05-10T07:50:52.914Z,4.80
2023-05-10T07:53:21.194Z,4.20
2023-05-10T07:55:53.014Z,5.20
2023-05-10T07:58:21.096Z,5.30
2023-05-10T08:00:50.393Z,4.40
2023-05-10T08:03:18.703Z,3.80
2023-05-10T08:05:47.417Z,4.60
2023-05-10T08:08:16.039Z,4.30
2023-05-10T08:10:44.225Z,4.30
2023-05-10T08:13:12.248Z,4.00
2023-05-10T08:15:40.794Z,3.80
2023-05-10T08:20:37.302Z,3.80
2023-05-10T08:23:05.514Z,3.60
2023-05-10T08:25:33.893Z,3.70
2023-05-10T08:28:01.963Z,4.00
2023-05-10T08:30:30.383Z,5.80
2023-05-10T08:32:58.659Z,8.90
2023-05-10T08:35:27.152Z,6.50
2023-05-10T08:37:55.432Z,3.80
2023-05-10T08:40:27.264Z,4.60
2023-05-10T08:43:16.566Z,3.50
2023-05-10T08:45:48.651Z,4.20
2023-05-10T08:48:18.118Z,11.20
2023-05-10T08:50:46.398Z,3.60
2023-05-10T08:53:16.436Z,3.60
2023-05-10T08:55:44.594Z,3.60
2023-05-10T08:58:13.074Z,3.60
2023-05-10T09:00:41.259Z,3.60
2023-05-10T09:03:10.340Z,4.50
2023-05-10T09:05:38.844Z,3.20
2023-05-10T09:08:09.163Z,3.30
2023-05-10T09:10:39.646Z,3.40
2023-05-10T09:13:11.009Z,3.80
2023-05-10T09:15:40.129Z,12.90
2023-05-10T09:18:08.386Z,3.10
2023-05-10T09:20:36.719Z,3.60
2023-05-10T09:23:04.829Z,3.20
2023-05-10T09:25:36.111Z,5.40
2023-05-10T09:28:07.688Z,5.00
2023-05-10T09:30:36.728Z,5.10
2023-05-10T09:33:05.210Z,3.10
2023-05-10T09:38:05.368Z,3.80
2023-05-10T09:40:33.563Z,3.40
2023-05-10T09:43:02.616Z,4.20
2023-05-10T09:48:01.863Z,3.60
2023-05-10T09:50:31.189Z,3.40
2023-05-10T09:53:01.441Z,3.50
2023-05-10T09:55:47.683Z,4.30
2023-05-10T09:58:16.360Z,3.70
2023-05-10T10:00:46.413Z,3.90
2023-05-10T10:03:17.388Z,3.80
2023-05-10T10:05:47.302Z,4.00
2023-05-10T10:08:17.793Z,3.20
2023-05-10T10:10:47.597Z,4.20
2023-05-10T10:13:16.667Z,4.20
2023-05-10T10:18:17.908Z,4.00
2023-05-10T10:20:46.801Z,4.10
2023-05-10T10:23:17.324Z,3.40
2023-05-10T10:25:49.927Z,3.50
2023-05-10T10:28:18.586Z,6.50
2023-05-10T10:30:49.729Z,3.00
2023-05-10T10:33:36.813Z,2.80
2023-05-10T10:36:05.781Z,3.50
2023-05-10T10:38:49.034Z,3.30
2023-05-10T10:41:32.650Z,3.30
2023-05-10T10:44:33.361Z,2.80
2023-05-10T10:47:06.676Z,3.80
2023-05-10T10:49:39.172Z,8.00
2023-05-10T10:52:24.295Z,3.50
2023-05-10T10:55:20.294Z,4.70
2023-05-10T10:57:49.895Z,3.50
2023-05-10T11:00:31.987Z,3.30
2023-05-10T11:03:08.265Z,2.80
2023-05-10T11:05:52.320Z,2.80
2023-05-10T11:08:21.199Z,2.80
2023-05-10T11:11:01.337Z,3.40
2023-05-10T11:13:34.954Z,3.90
2023-05-10T11:16:28.178Z,2.60
2023-05-10T11:19:09.333Z,2.70
2023-05-10T11:22:12.287Z,2.70
2023-05-10T11:24:40.548Z,3.50
2023-05-10T11:27:09.076Z,3.10
2023-05-10T11:29:37.416Z,3.40
2023-05-10T11:32:09.456Z,6.60
2023-05-10T11:34:38.054Z,3.90
2023-05-10T11:37:06.279Z,5.40
2023-05-10T11:39:34.729Z,3.20
2023-05-10T11:42:03.193Z,3.00
2023-05-10T11:44:32.659Z,3.80
2023-05-10T11:47:02.259Z,3.60
2023-05-10T11:49:31.042Z,4.60
2023-05-10T11:52:09.407Z,2.50
2023-05-10T11:54:37.550Z,3.00
2023-05-10T11:57:06.003Z,3.20
2023-05-10T11:59:34.292Z,2.90
2023-05-10T12:02:03.323Z,2.80
2023-05-10T12:04:32.407Z,3.30
2023-05-10T12:07:00.702Z,5.20
2023-05-10T12:09:42.632Z,2.90
2023-05-10T12:12:18.110Z,2.80
2023-05-10T12:14:51.564Z,2.60
2023-05-10T12:17:19.592Z,2.40
2023-05-10T12:19:48.319Z,4.40
2023-05-10T12:22:16.327Z,2.80
2023-05-10T12:24:46.646Z,2.80
2023-05-10T12:27:15.981Z,2.50
2023-05-10T12:29:47.278Z,3.20
2023-05-10T12:32:15.419Z,3.10
2023-05-10T12:34:43.534Z,2.30
2023-05-10T12:37:11.752Z,3.90
2023-05-10T12:39:45.363Z,7.30
2023-05-10T12:42:13.422Z,3.40
2023-05-10T12:44:41.594Z,2.90
2023-05-10T12:47:09.751Z,2.90
2023-05-10T12:49:37.844Z,4.50
2023-05-10T12:52:05.999Z,3.10
2023-05-10T12:54:34.287Z,2.80
2023-05-10T12:57:02.484Z,2.80
2023-05-10T12:59:30.874Z,5.00
2023-05-10T13:01:59.400Z,4.50
2023-05-10T13:04:27.716Z,3.80
2023-05-10T13:06:59.908Z,2.80
2023-05-10T13:09:30.761Z,2.80
2023-05-10T13:11:59.099Z,4.60
2023-05-10T13:14:27.747Z,3.40
2023-05-10T13:16:55.959Z,5.20
2023-05-10T13:19:24.525Z,2.90
2023-05-10T13:21:53.101Z,3.20
2023-05-10T13:24:21.563Z,2.60
2023-05-10T13:26:49.869Z,2.60
2023-05-10T13:29:19.243Z,3.40
2023-05-10T13:31:47.465Z,2.30
2023-05-10T13:34:15.798Z,2.80
2023-05-10T13:36:43.794Z,2.90
2023-05-10T13:39:12.062Z,3.30
2023-05-10T13:41:40.147Z,3.20
2023-05-10T13:44:08.507Z,4.60
2023-05-10T13:46:36.799Z,3.60
2023-05-10T13:49:05.947Z,3.20
2023-05-10T13:51:35.287Z,2.90
2023-05-10T13:54:04.479Z,2.80
2023-05-10T13:56:32.495Z,3.10
2023-05-10T13:59:00.651Z,4.10
2023-05-10T14:01:28.764Z,2.60
2023-05-10T14:03:57.317Z,2.60
2023-05-10T14:06:25.873Z,4.30
2023-05-10T14:08:55.130Z,2.60
2023-05-10T14:11:24.819Z,2.30
2023-05-10T14:13:53.075Z,3.00
2023-05-10T14:16:21.720Z,3.10
2023-05-10T14:21:18.892Z,5.70
2023-05-10T14:23:47.109Z,3.00
2023-05-10T14:26:15.346Z,2.90
2023-05-10T14:28:43.798Z,2.50
2023-05-10T14:31:12.703Z,3.00
2023-05-10T14:33:41.553Z,3.10
2023-05-10T14:36:11.411Z,3.00
2023-05-10T14:38:39.475Z,3.00
2023-05-10T14:41:09.970Z,3.60
2023-05-10T14:43:39.246Z,3.00
2023-05-10T14:46:07.442Z,4.60
2023-05-10T14:48:36.378Z,3.20
2023-05-10T14:51:04.775Z,2.00
2023-05-10T14:53:33.710Z,5.30
2023-05-10T14:56:04.799Z,4.80
2023-05-10T14:58:34.093Z,4.90
2023-05-10T15:01:03.005Z,2.80
2023-05-10T15:03:32.031Z,3.70
2023-05-10T15:06:00.649Z,3.10
2023-05-10T15:08:28.881Z,3.00
2023-05-10T15:10:57.097Z,3.90
2023-05-10T15:13:25.176Z,2.50
2023-05-10T15:15:53.569Z,2.90
2023-05-10T15:18:23.617Z,3.50
2023-05-10T15:20:51.844Z,2.40
2023-05-10T15:23:20.027Z,3.20
2023-05-10T15:25:48.516Z,7.40
2023-05-10T15:28:16.869Z,2.80
2023-05-10T15:30:45.375Z,3.20
2023-05-10T15:33:13.731Z,3.60
2023-05-10T15:35:42.226Z,5.30
2023-05-10T15:38:11.068Z,3.00
2023-05-10T15:40:39.165Z,2.70
2023-05-10T15:43:07.563Z,2.60
2023-05-10T15:45:37.609Z,2.60
2023-05-10T15:48:06.306Z,3.20
2023-05-10T15:50:34.424Z,4.30
2023-05-10T15:53:02.496Z,2.80
2023-05-10T15:55:30.781Z,3.10
2023-05-10T15:57:59.061Z,3.20
2023-05-10T16:00:27.430Z,3.80
2023-05-10T16:02:55.489Z,2.70
2023-05-10T16:05:24.304Z,3.00
2023-05-10T16:07:52.434Z,2.70
2023-05-10T16:10:20.569Z,3.40
2023-05-10T16:12:49.532Z,3.30
2023-05-10T16:15:17.914Z,3.40
2023-05-10T16:17:46.760Z,2.50
2023-05-10T16:20:14.865Z,2.70
2023-05-10T16:22:44.591Z,6.10
2023-05-10T16:25:13.659Z,3.20
2023-05-10T16:27:43.214Z,5.50
2023-05-10T16:32:39.881Z,3.40
2023-05-10T16:35:08.834Z,5.40
2023-05-10T16:37:37.446Z,4.80
2023-05-10T16:40:06.511Z,3.20
2023-05-10T16:42:34.691Z,4.50
2023-05-10T16:45:07.900Z,9.50
2023-05-10T16:47:37.151Z,3.60
2023-05-10T16:50:07.759Z,3.40
2023-05-10T16:52:37.318Z,3.40
2023-05-10T16:55:06.119Z,10.20
2023-05-10T16:57:35.466Z,6.00
2023-05-10T17:00:05.265Z,3.20
2023-05-10T17:02:33.463Z,3.00
2023-05-10T17:05:01.857Z,4.20
2023-05-10T17:07:30.634Z,3.60
2023-05-10T17:09:59.665Z,5.90
2023-05-10T17:12:28.143Z,3.80
2023-05-10T17:14:56.563Z,4.60
2023-05-10T17:17:25.323Z,4.80
2023-05-10T17:19:53.569Z,4.30
2023-05-10T17:22:21.934Z,3.50
2023-05-10T17:24:50.721Z,9.00
2023-05-10T17:27:18.902Z,2.90
2023-05-10T17:29:46.972Z,5.40
2023-05-10T17:32:14.979Z,3.10
2023-05-10T17:34:43.411Z,4.70
2023-05-10T17:37:12.215Z,3.70
2023-05-10T17:39:40.374Z,4.00
2023-05-10T17:42:08.748Z,3.80
2023-05-10T17:44:37.015Z,8.30
2023-05-10T17:47:06.421Z,7.60
2023-05-10T17:49:34.477Z,4.50
2023-05-10T17:52:02.605Z,4.80
2023-05-10T17:54:30.846Z,5.30
2023-05-10T17:57:01.065Z,7.10
2023-05-10T17:59:29.480Z,20.60
2023-05-10T18:01:58.030Z,10.00
2023-05-10T18:04:26.301Z,10.90
2023-05-10T18:07:01.367Z,9.00
2023-05-10T18:09:30.216Z,8.30
2023-05-10T18:11:58.398Z,5.70
2023-05-10T18:14:39.648Z,5.20
2023-05-10T18:17:10.093Z,5.20
2023-05-10T18:19:38.630Z,11.20
2023-05-10T18:22:10.449Z,5.70
2023-05-10T18:24:40.076Z,4.10
2023-05-10T18:27:09.494Z,6.30
2023-05-10T18:29:37.925Z,5.50
2023-05-10T18:32:06.799Z,7.80
2023-05-10T18:34:35.103Z,4.80
2023-05-10T18:37:07.904Z,7.30
2023-05-10T18:39:37.559Z,10.30
2023-05-10T18:42:06.003Z,8.50
2023-05-10T18:44:34.308Z,5.90
2023-05-10T18:47:02.489Z,5.70
2023-05-10T18:49:30.992Z,5.30
2023-05-10T18:51:59.150Z,7.10
2023-05-10T18:54:27.648Z,7.20
2023-05-10T18:56:57.623Z,7.20
2023-05-10T18:59:28.167Z,4.90
2023-05-10T19:01:57.465Z,13.80
2023-05-10T19:04:26.251Z,5.10
2023-05-10T19:06:56.074Z,6.50
2023-05-10T19:09:26.982Z,7.60
2023-05-10T19:11:55.307Z,5.60
2023-05-10T19:14:25.395Z,6.50
2023-05-10T19:16:54.465Z,7.00
2023-05-10T19:19:22.832Z,6.20
2023-05-10T19:21:51.170Z,5.70
2023-05-10T19:24:22.280Z,7.00
2023-05-10T19:26:50.586Z,5.70
2023-05-10T19:29:18.861Z,7.20
2023-05-10T19:31:47.366Z,9.20
2023-05-10T19:34:16.301Z,5.70
2023-05-10T19:36:45.102Z,5.30
2023-05-10T19:39:13.395Z,6.30
2023-05-10T19:41:41.775Z,5.80
2023-05-10T19:44:09.828Z,5.80
2023-05-10T19:46:38.077Z,6.40
2023-05-10T19:49:06.523Z,7.50
2023-05-10T19:51:34.776Z,7.90
2023-05-10T19:54:02.894Z,5.90
2023-05-10T19:56:31.123Z,5.80
2023-05-10T19:58:59.603Z,5.70
2023-05-10T20:01:27.722Z,6.00
2023-05-10T20:03:57.001Z,7.00
2023-05-10T20:08:53.422Z,8.10
2023-05-10T20:11:21.908Z,5.50
2023-05-10T20:13:50.093Z,6.50
2023-05-10T20:16:18.541Z,6.20
2023-05-10T20:18:47.146Z,5.40
2023-05-10T20:21:15.424Z,7.20
2023-05-10T20:23:43.687Z,6.80
2023-05-10T20:26:12.708Z,6.70
2023-05-10T20:28:42.009Z,8.50
2023-05-10T20:31:10.256Z,6.40
2023-05-10T20:33:38.439Z,5.80
2023-05-10T20:36:09.551Z,6.20
2023-05-10T20:38:38.102Z,6.50
2023-05-10T20:41:06.432Z,8.30
2023-05-10T20:43:34.601Z,7.80
2023-05-10T20:46:05.522Z,7.40
2023-05-10T20:48:34.434Z,6.30
2023-05-10T20:51:02.784Z,8.40
2023-05-10T20:53:31.102Z,9.40
2023-05-10T20:55:59.362Z,6.90
2023-05-10T20:58:27.745Z,5.90
2023-05-10T21:00:55.774Z,11.70
2023-05-10T21:03:24.154Z,6.70
2023-05-10T21:05:52.249Z,6.40
2023-05-10T21:08:20.831Z,6.30
2023-05-10T21:10:49.036Z,7.10
2023-05-10T21:13:17.286Z,6.20
2023-05-10T21:15:45.464Z,9.20
2023-05-10T21:18:14.172Z,6.30
2023-05-10T21:20:42.416Z,14.40
2023-05-10T21:23:10.618Z,7.00
2023-05-10T21:25:38.869Z,4.90
2023-05-10T21:28:07.248Z,6.40
2023-05-10T21:30:35.537Z,6.30
2023-05-10T21:33:03.913Z,8.20
2023-05-10T21:35:32.288Z,7.80
2023-05-10T21:38:00.450Z,10.00
2023-05-10T21:40:29.153Z,7.00
2023-05-10T21:42:57.927Z,7.00
2023-05-10T21:45:26.222Z,7.90
2023-05-10T21:47:54.792Z,7.50
2023-05-10T21:50:23.065Z,9.00
2023-05-10T21:52:51.269Z,6.70
2023-05-10T21:55:19.646Z,6.20
2023-05-10T21:57:48.043Z,8.00
2023-05-10T22:00:19.202Z,6.50
2023-05-10T22:02:47.773Z,6.50
2023-05-10T22:05:16.314Z,6.60
2023-05-10T22:07:44.380Z,6.70
2023-05-10T22:10:12.543Z,6.50
2023-05-10T22:12:40.909Z,7.50
2023-05-10T22:15:10.747Z,7.20
2023-05-10T22:17:40.738Z,12.40
2023-05-10T22:20:09.813Z,6.50
2023-05-10T22:22:38.206Z,7.90
2023-05-10T22:25:07.804Z,6.70
2023-05-10T22:27:35.975Z,7.00
2023-05-10T22:30:05.195Z,6.80
2023-05-10T22:32:33.331Z,6.70
2023-05-10T22:35:01.436Z,6.40
2023-05-10T22:37:29.497Z,8.00
2023-05-10T22:39:57.767Z,8.00
2023-05-10T22:42:26.298Z,9.00
2023-05-10T22:44:54.367Z,6.90
2023-05-10T22:47:22.514Z,7.10
2023-05-10T22:49:50.676Z,6.80
2023-05-10T22:52:18.906Z,9.40
2023-05-10T22:54:47.302Z,8.40
2023-05-10T22:57:16.528Z,8.40
2023-05-10T23:02:14.338Z,8.50
2023-05-10T23:04:42.501Z,9.30
2023-05-10T23:07:11.593Z,8.50
2023-05-10T23:09:40.022Z,7.90
2023-05-10T23:12:08.352Z,9.90
2023-05-10T23:14:36.403Z,9.80
2023-05-10T23:17:04.755Z,8.90
2023-05-10T23:19:32.792Z,10.80
2023-05-10T23:22:01.337Z,8.30
2023-05-10T23:24:29.502Z,9.10
2023-05-10T23:26:57.541Z,13.90
2023-05-10T23:29:26.559Z,8.10
2023-05-10T23:31:54.778Z,9.50
2023-05-10T23:34:22.843Z,9.00
2023-05-10T23:36:51.083Z,8.50
2023-05-10T23:39:19.283Z,8.60
2023-05-10T23:41:47.976Z,8.20
2023-05-10T23:44:16.758Z,8.50
2023-05-10T23:46:44.908Z,8.70
2023-05-10T23:49:13.034Z,8.60
2023-05-10T23:51:41.126Z,9.20
2023-05-10T23:54:09.497Z,9.00
2023-05-10T23:56:38.002Z,7.20
2023-05-10T23:59:06.178Z,13.10
